sensor_id;sensor_type;location;lat;lon;timestamp;temperature;humidity
63277;DHT22;49403;51.046;13.780;2023-07-31T00:00:22;19.80;73.40
63277;DHT22;49403;51.046;13.780;2023-07-31T00:00:56;19.80;73.40
63277;DHT22;49403;51.046;13.780;2023-07-31T00:01:27;19.80;71.40
63277;DHT22;49403;51.046;13.780;2023-07-31T00:01:59;19.80;70.10
63277;DHT22;49403;51.046;13.780;2023-07-31T00:02:30;19.80;69.80
63277;DHT22;49403;51.046;13.780;2023-07-31T00:03:01;19.80;69.60
63277;DHT22;49403;51.046;13.780;2023-07-31T00:03:32;19.80;69.70
63277;DHT22;49403;51.046;13.780;2023-07-31T00:04:03;19.80;69.80
63277;DHT22;49403;51.046;13.780;2023-07-31T00:04:35;19.80;69.80
63277;DHT22;49403;51.046;13.780;2023-07-31T00:05:08;19.80;69.50
63277;DHT22;49403;51.046;13.780;2023-07-31T00:05:39;19.80;69.50
63277;DHT22;49403;51.046;13.780;2023-07-31T00:06:10;19.80;69.70
63277;DHT22;49403;51.046;13.780;2023-07-31T00:06:41;19.80;69.70
63277;DHT22;49403;51.046;13.780;2023-07-31T00:07:13;19.80;69.80
63277;DHT22;49403;51.046;13.780;2023-07-31T00:07:44;19.70;70.50
63277;DHT22;49403;51.046;13.780;2023-07-31T00:08:16;19.80;70.60
63277;DHT22;49403;51.046;13.780;2023-07-31T00:08:47;19.80;70.80
63277;DHT22;49403;51.046;13.780;2023-07-31T00:09:19;19.90;71.40
63277;DHT22;49403;51.046;13.780;2023-07-31T00:09:50;19.80;71.60
63277;DHT22;49403;51.046;13.780;2023-07-31T00:10:21;19.80;71.90
63277;DHT22;49403;51.046;13.780;2023-07-31T00:10:52;19.90;71.20
63277;DHT22;49403;51.046;13.780;2023-07-31T00:11:24;19.90;69.80
63277;DHT22;49403;51.046;13.780;2023-07-31T00:11:55;19.80;69.70
63277;DHT22;49403;51.046;13.780;2023-07-31T00:12:26;19.80;69.50
63277;DHT22;49403;51.046;13.780;2023-07-31T00:12:58;19.80;69.60
63277;DHT22;49403;51.046;13.780;2023-07-31T00:13:29;20.10;70.40
63277;DHT22;49403;51.046;13.780;2023-07-31T00:14:01;19.80;70.50
63277;DHT22;49403;51.046;13.780;2023-07-31T00:14:32;19.80;70.80
63277;DHT22;49403;51.046;13.780;2023-07-31T00:15:03;19.80;71.10
63277;DHT22;49403;51.046;13.780;2023-07-31T00:15:35;19.80;71.50
63277;DHT22;49403;51.046;13.780;2023-07-31T00:16:06;20.50;72.30
63277;DHT22;49403;51.046;13.780;2023-07-31T00:16:37;19.80;72.00
63277;DHT22;49403;51.046;13.780;2023-07-31T00:17:08;19.80;72.30
63277;DHT22;49403;51.046;13.780;2023-07-31T00:17:40;19.30;72.00
63277;DHT22;49403;51.046;13.780;2023-07-31T00:18:11;19.80;72.80
63277;DHT22;49403;51.046;13.780;2023-07-31T00:18:42;19.80;73.00
63277;DHT22;49403;51.046;13.780;2023-07-31T00:19:13;19.70;73.10
63277;DHT22;49403;51.046;13.780;2023-07-31T00:19:45;19.70;73.30
63277;DHT22;49403;51.046;13.780;2023-07-31T00:20:17;19.70;73.60
63277;DHT22;49403;51.046;13.780;2023-07-31T00:20:48;19.60;73.60
63277;DHT22;49403;51.046;13.780;2023-07-31T00:21:19;19.70;73.70
63277;DHT22;49403;51.046;13.780;2023-07-31T00:21:50;19.80;73.90
63277;DHT22;49403;51.046;13.780;2023-07-31T00:22:21;19.60;73.80
63277;DHT22;49403;51.046;13.780;2023-07-31T00:22:53;19.70;74.10
63277;DHT22;49403;51.046;13.780;2023-07-31T00:23:24;19.60;74.00
63277;DHT22;49403;51.046;13.780;2023-07-31T00:23:55;19.60;74.30
63277;DHT22;49403;51.046;13.780;2023-07-31T00:24:26;19.80;74.50
63277;DHT22;49403;51.046;13.780;2023-07-31T00:24:58;19.50;74.40
63277;DHT22;49403;51.046;13.780;2023-07-31T00:25:30;19.60;74.60
63277;DHT22;49403;51.046;13.780;2023-07-31T00:26:01;19.60;74.70
63277;DHT22;49403;51.046;13.780;2023-07-31T00:26:32;19.60;74.90
63277;DHT22;49403;51.046;13.780;2023-07-31T00:27:04;20.30;75.60
63277;DHT22;49403;51.046;13.780;2023-07-31T00:27:35;19.60;74.80
63277;DHT22;49403;51.046;13.780;2023-07-31T00:28:06;18.70;74.00
63277;DHT22;49403;51.046;13.780;2023-07-31T00:28:40;19.60;74.80
63277;DHT22;49403;51.046;13.780;2023-07-31T00:29:11;19.60;74.90
63277;DHT22;49403;51.046;13.780;2023-07-31T00:29:43;19.60;74.80
63277;DHT22;49403;51.046;13.780;2023-07-31T00:30:14;19.60;74.80
63277;DHT22;49403;51.046;13.780;2023-07-31T00:30:45;19.90;75.10
63277;DHT22;49403;51.046;13.780;2023-07-31T00:31:17;19.70;75.10
63277;DHT22;49403;51.046;13.780;2023-07-31T00:31:48;19.60;75.00
63277;DHT22;49403;51.046;13.780;2023-07-31T00:32:19;19.60;75.00
63277;DHT22;49403;51.046;13.780;2023-07-31T00:32:50;19.60;74.90
63277;DHT22;49403;51.046;13.780;2023-07-31T00:33:22;19.60;74.90
63277;DHT22;49403;51.046;13.780;2023-07-31T00:33:53;19.60;74.90
63277;DHT22;49403;51.046;13.780;2023-07-31T00:34:24;19.60;74.90
63277;DHT22;49403;51.046;13.780;2023-07-31T00:34:55;19.60;75.60
63277;DHT22;49403;51.046;13.780;2023-07-31T00:35:26;19.60;74.90
63277;DHT22;49403;51.046;13.780;2023-07-31T00:35:58;19.60;74.80
63277;DHT22;49403;51.046;13.780;2023-07-31T00:36:29;19.60;74.80
63277;DHT22;49403;51.046;13.780;2023-07-31T00:37:00;19.50;74.60
63277;DHT22;49403;51.046;13.780;2023-07-31T00:37:32;19.60;74.90
63277;DHT22;49403;51.046;13.780;2023-07-31T00:38:03;19.60;75.10
63277;DHT22;49403;51.046;13.780;2023-07-31T00:38:34;19.60;75.40
63277;DHT22;49403;51.046;13.780;2023-07-31T00:39:05;19.60;75.50
63277;DHT22;49403;51.046;13.780;2023-07-31T00:39:36;19.50;75.50
63277;DHT22;49403;51.046;13.780;2023-07-31T00:40:08;19.60;75.20
63277;DHT22;49403;51.046;13.780;2023-07-31T00:40:39;19.60;75.00
63277;DHT22;49403;51.046;13.780;2023-07-31T00:41:11;19.60;75.00
63277;DHT22;49403;51.046;13.780;2023-07-31T00:41:42;19.60;74.70
63277;DHT22;49403;51.046;13.780;2023-07-31T00:42:13;19.60;74.70
63277;DHT22;49403;51.046;13.780;2023-07-31T00:42:44;19.60;74.80
63277;DHT22;49403;51.046;13.780;2023-07-31T00:43:15;20.50;75.70
63277;DHT22;49403;51.046;13.780;2023-07-31T00:43:47;19.40;74.60
63277;DHT22;49403;51.046;13.780;2023-07-31T00:44:18;19.60;74.50
63277;DHT22;49403;51.046;13.780;2023-07-31T00:44:49;19.60;74.20
63277;DHT22;49403;51.046;13.780;2023-07-31T00:45:22;19.60;74.20
63277;DHT22;49403;51.046;13.780;2023-07-31T00:45:54;19.60;74.20
63277;DHT22;49403;51.046;13.780;2023-07-31T00:46:25;19.60;74.10
63277;DHT22;49403;51.046;13.780;2023-07-31T00:46:57;19.60;74.80
63277;DHT22;49403;51.046;13.780;2023-07-31T00:47:29;19.60;74.10
63277;DHT22;49403;51.046;13.780;2023-07-31T00:48:01;20.40;74.70
63277;DHT22;49403;51.046;13.780;2023-07-31T00:48:33;19.60;74.10
63277;DHT22;49403;51.046;13.780;2023-07-31T00:49:05;19.60;74.10
63277;DHT22;49403;51.046;13.780;2023-07-31T00:49:36;20.20;74.80
63277;DHT22;49403;51.046;13.780;2023-07-31T00:50:08;19.60;74.40
63277;DHT22;49403;51.046;13.780;2023-07-31T00:50:40;19.30;74.20
63277;DHT22;49403;51.046;13.780;2023-07-31T00:51:11;20.60;75.30
63277;DHT22;49403;51.046;13.780;2023-07-31T00:51:42;19.60;74.30
63277;DHT22;49403;51.046;13.780;2023-07-31T00:52:13;19.60;74.30
63277;DHT22;49403;51.046;13.780;2023-07-31T00:52:44;19.60;74.30
63277;DHT22;49403;51.046;13.780;2023-07-31T00:53:16;19.70;74.60
63277;DHT22;49403;51.046;13.780;2023-07-31T00:53:47;19.70;74.50
63277;DHT22;49403;51.046;13.780;2023-07-31T00:54:18;19.70;74.20
63277;DHT22;49403;51.046;13.780;2023-07-31T00:54:49;19.70;73.90
63277;DHT22;49403;51.046;13.780;2023-07-31T00:55:21;19.70;73.80
63277;DHT22;49403;51.046;13.780;2023-07-31T00:55:52;19.70;73.90
63277;DHT22;49403;51.046;13.780;2023-07-31T00:56:24;19.70;73.70
63277;DHT22;49403;51.046;13.780;2023-07-31T00:56:56;19.70;73.50
63277;DHT22;49403;51.046;13.780;2023-07-31T00:57:28;19.60;73.40
63277;DHT22;49403;51.046;13.780;2023-07-31T00:58:00;19.60;73.60
63277;DHT22;49403;51.046;13.780;2023-07-31T00:58:31;19.60;73.50
63277;DHT22;49403;51.046;13.780;2023-07-31T00:59:02;19.60;73.60
63277;DHT22;49403;51.046;13.780;2023-07-31T00:59:33;19.60;73.50
63277;DHT22;49403;51.046;13.780;2023-07-31T01:00:05;19.60;73.40
63277;DHT22;49403;51.046;13.780;2023-07-31T01:00:36;19.70;73.60
63277;DHT22;49403;51.046;13.780;2023-07-31T01:01:08;19.60;73.60
63277;DHT22;49403;51.046;13.780;2023-07-31T01:01:39;20.40;74.20
63277;DHT22;49403;51.046;13.780;2023-07-31T01:02:11;19.70;73.20
63277;DHT22;49403;51.046;13.780;2023-07-31T01:02:42;19.70;72.90
63277;DHT22;49403;51.046;13.780;2023-07-31T01:03:13;19.70;72.60
63277;DHT22;49403;51.046;13.780;2023-07-31T01:03:48;19.70;72.50
63277;DHT22;49403;51.046;13.780;2023-07-31T01:04:22;19.70;72.70
63277;DHT22;49403;51.046;13.780;2023-07-31T01:04:53;19.60;72.70
63277;DHT22;49403;51.046;13.780;2023-07-31T01:05:37;20.30;73.50
63277;DHT22;49403;51.046;13.780;2023-07-31T01:06:28;19.70;72.70
63277;DHT22;49403;51.046;13.780;2023-07-31T01:07:11;19.60;72.10
63277;DHT22;49403;51.046;13.780;2023-07-31T01:08:24;19.60;72.10
63277;DHT22;49403;51.046;13.780;2023-07-31T01:10:23;19.60;72.70
63277;DHT22;49403;51.046;13.780;2023-07-31T01:11:15;19.60;72.90
63277;DHT22;49403;51.046;13.780;2023-07-31T01:11:51;19.50;72.80
63277;DHT22;49403;51.046;13.780;2023-07-31T01:12:24;19.60;73.20
63277;DHT22;49403;51.046;13.780;2023-07-31T01:12:57;19.60;72.90
63277;DHT22;49403;51.046;13.780;2023-07-31T01:13:29;19.60;72.30
63277;DHT22;49403;51.046;13.780;2023-07-31T01:14:00;19.50;71.80
63277;DHT22;49403;51.046;13.780;2023-07-31T01:14:32;19.50;71.80
63277;DHT22;49403;51.046;13.780;2023-07-31T01:15:04;19.00;71.40
63277;DHT22;49403;51.046;13.780;2023-07-31T01:15:36;18.00;70.40
63277;DHT22;49403;51.046;13.780;2023-07-31T01:16:08;19.40;71.70
63277;DHT22;49403;51.046;13.780;2023-07-31T01:16:39;19.50;71.70
63277;DHT22;49403;51.046;13.780;2023-07-31T01:17:10;20.40;72.20
63277;DHT22;49403;51.046;13.780;2023-07-31T01:17:42;19.50;70.90
63277;DHT22;49403;51.046;13.780;2023-07-31T01:18:13;21.00;72.40
63277;DHT22;49403;51.046;13.780;2023-07-31T01:18:44;19.50;70.80
63277;DHT22;49403;51.046;13.780;2023-07-31T01:19:18;18.70;70.00
63277;DHT22;49403;51.046;13.780;2023-07-31T01:19:53;19.50;71.00
63277;DHT22;49403;51.046;13.780;2023-07-31T01:20:26;19.50;71.10
63277;DHT22;49403;51.046;13.780;2023-07-31T01:21:07;19.50;71.00
63277;DHT22;49403;51.046;13.780;2023-07-31T01:22:02;19.60;71.10
63277;DHT22;49403;51.046;13.780;2023-07-31T01:23:05;19.60;71.00
63277;DHT22;49403;51.046;13.780;2023-07-31T01:24:46;19.50;71.30
63277;DHT22;49403;51.046;13.780;2023-07-31T01:26:34;19.60;70.70
63277;DHT22;49403;51.046;13.780;2023-07-31T01:27:14;20.60;72.00
63277;DHT22;49403;51.046;13.780;2023-07-31T01:28:02;19.70;71.10
63277;DHT22;49403;51.046;13.780;2023-07-31T01:28:40;19.50;71.30
63277;DHT22;49403;51.046;13.780;2023-07-31T01:29:35;19.50;71.70
63277;DHT22;49403;51.046;13.780;2023-07-31T01:30:16;18.30;70.50
63277;DHT22;49403;51.046;13.780;2023-07-31T01:30:48;18.90;71.10
63277;DHT22;49403;51.046;13.780;2023-07-31T01:31:25;19.50;71.50
63277;DHT22;49403;51.046;13.780;2023-07-31T01:32:01;19.50;70.70
63277;DHT22;49403;51.046;13.780;2023-07-31T01:32:34;19.40;69.80
63277;DHT22;49403;51.046;13.780;2023-07-31T01:33:06;19.50;69.50
63277;DHT22;49403;51.046;13.780;2023-07-31T01:33:40;19.50;69.40
63277;DHT22;49403;51.046;13.780;2023-07-31T01:34:14;19.50;69.50
63277;DHT22;49403;51.046;13.780;2023-07-31T01:34:47;19.50;69.10
63277;DHT22;49403;51.046;13.780;2023-07-31T01:35:18;19.50;68.50
63277;DHT22;49403;51.046;13.780;2023-07-31T01:35:50;19.40;68.20
63277;DHT22;49403;51.046;13.780;2023-07-31T01:36:21;19.40;68.30
63277;DHT22;49403;51.046;13.780;2023-07-31T01:36:53;19.60;68.60
63277;DHT22;49403;51.046;13.780;2023-07-31T01:37:29;19.60;68.80
63277;DHT22;49403;51.046;13.780;2023-07-31T01:38:00;19.60;68.60
63277;DHT22;49403;51.046;13.780;2023-07-31T01:38:31;19.60;68.50
63277;DHT22;49403;51.046;13.780;2023-07-31T01:39:03;19.60;68.60
63277;DHT22;49403;51.046;13.780;2023-07-31T01:39:34;19.60;68.80
63277;DHT22;49403;51.046;13.780;2023-07-31T01:40:06;19.60;68.70
63277;DHT22;49403;51.046;13.780;2023-07-31T01:40:41;19.70;68.70
63277;DHT22;49403;51.046;13.780;2023-07-31T01:41:13;19.70;68.50
63277;DHT22;49403;51.046;13.780;2023-07-31T01:41:44;19.70;68.50
63277;DHT22;49403;51.046;13.780;2023-07-31T01:42:15;19.60;68.30
63277;DHT22;49403;51.046;13.780;2023-07-31T01:42:46;19.70;68.20
63277;DHT22;49403;51.046;13.780;2023-07-31T01:43:18;19.70;68.20
63277;DHT22;49403;51.046;13.780;2023-07-31T01:43:49;19.70;68.30
63277;DHT22;49403;51.046;13.780;2023-07-31T01:44:20;19.80;68.40
63277;DHT22;49403;51.046;13.780;2023-07-31T01:44:52;19.70;68.30
63277;DHT22;49403;51.046;13.780;2023-07-31T01:45:23;19.70;68.30
63277;DHT22;49403;51.046;13.780;2023-07-31T01:45:54;19.70;68.10
63277;DHT22;49403;51.046;13.780;2023-07-31T01:46:25;19.70;67.80
63277;DHT22;49403;51.046;13.780;2023-07-31T01:46:57;19.80;67.70
63277;DHT22;49403;51.046;13.780;2023-07-31T01:47:30;19.80;67.70
63277;DHT22;49403;51.046;13.780;2023-07-31T01:48:01;19.80;67.60
63277;DHT22;49403;51.046;13.780;2023-07-31T01:48:33;19.70;67.50
63277;DHT22;49403;51.046;13.780;2023-07-31T01:49:06;19.80;67.70
63277;DHT22;49403;51.046;13.780;2023-07-31T01:49:37;19.80;67.50
63277;DHT22;49403;51.046;13.780;2023-07-31T01:50:09;19.80;67.10
63277;DHT22;49403;51.046;13.780;2023-07-31T01:50:40;19.90;67.20
63277;DHT22;49403;51.046;13.780;2023-07-31T01:51:11;19.80;67.30
63277;DHT22;49403;51.046;13.780;2023-07-31T01:51:43;19.80;67.30
63277;DHT22;49403;51.046;13.780;2023-07-31T01:52:14;20.20;67.40
63277;DHT22;49403;51.046;13.780;2023-07-31T01:52:45;20.50;67.80
63277;DHT22;49403;51.046;13.780;2023-07-31T01:53:17;19.80;67.30
63277;DHT22;49403;51.046;13.780;2023-07-31T01:53:48;19.80;67.20
63277;DHT22;49403;51.046;13.780;2023-07-31T01:54:19;19.80;67.20
63277;DHT22;49403;51.046;13.780;2023-07-31T01:54:50;19.80;67.10
63277;DHT22;49403;51.046;13.780;2023-07-31T01:55:22;19.80;66.80
63277;DHT22;49403;51.046;13.780;2023-07-31T01:55:53;19.80;66.80
63277;DHT22;49403;51.046;13.780;2023-07-31T01:56:24;19.80;67.10
63277;DHT22;49403;51.046;13.780;2023-07-31T01:56:55;19.80;67.10
63277;DHT22;49403;51.046;13.780;2023-07-31T01:57:27;19.80;67.10
63277;DHT22;49403;51.046;13.780;2023-07-31T01:57:58;19.80;67.20
63277;DHT22;49403;51.046;13.780;2023-07-31T01:58:29;19.70;67.30
63277;DHT22;49403;51.046;13.780;2023-07-31T01:59:01;19.80;67.30
63277;DHT22;49403;51.046;13.780;2023-07-31T01:59:32;19.80;67.20
63277;DHT22;49403;51.046;13.780;2023-07-31T02:00:04;19.80;66.70
63277;DHT22;49403;51.046;13.780;2023-07-31T02:00:36;21.20;67.90
63277;DHT22;49403;51.046;13.780;2023-07-31T02:01:07;19.90;66.70
63277;DHT22;49403;51.046;13.780;2023-07-31T02:01:38;19.90;67.10
63277;DHT22;49403;51.046;13.780;2023-07-31T02:02:09;19.90;67.40
63277;DHT22;49403;51.046;13.780;2023-07-31T02:02:40;20.00;67.50
63277;DHT22;49403;51.046;13.780;2023-07-31T02:03:12;21.10;68.50
63277;DHT22;49403;51.046;13.780;2023-07-31T02:03:43;20.00;66.60
63277;DHT22;49403;51.046;13.780;2023-07-31T02:04:14;20.00;66.40
63277;DHT22;49403;51.046;13.780;2023-07-31T02:04:45;20.00;66.40
63277;DHT22;49403;51.046;13.780;2023-07-31T02:05:17;20.00;66.70
63277;DHT22;49403;51.046;13.780;2023-07-31T02:05:49;20.00;67.20
63277;DHT22;49403;51.046;13.780;2023-07-31T02:06:20;20.10;66.40
63277;DHT22;49403;51.046;13.780;2023-07-31T02:06:53;20.10;66.30
63277;DHT22;49403;51.046;13.780;2023-07-31T02:07:24;20.00;66.00
63277;DHT22;49403;51.046;13.780;2023-07-31T02:07:55;20.00;65.70
63277;DHT22;49403;51.046;13.780;2023-07-31T02:08:26;21.50;67.30
63277;DHT22;49403;51.046;13.780;2023-07-31T02:08:57;20.10;65.90
63277;DHT22;49403;51.046;13.780;2023-07-31T02:09:29;20.10;65.70
63277;DHT22;49403;51.046;13.780;2023-07-31T02:10:00;20.20;65.70
63277;DHT22;49403;51.046;13.780;2023-07-31T02:10:31;20.20;65.80
63277;DHT22;49403;51.046;13.780;2023-07-31T02:11:03;20.20;65.90
63277;DHT22;49403;51.046;13.780;2023-07-31T02:11:36;20.20;66.10
63277;DHT22;49403;51.046;13.780;2023-07-31T02:12:08;20.00;66.00
63277;DHT22;49403;51.046;13.780;2023-07-31T02:12:39;20.20;66.50
63277;DHT22;49403;51.046;13.780;2023-07-31T02:13:10;20.30;66.40
63277;DHT22;49403;51.046;13.780;2023-07-31T02:13:42;20.20;65.80
63277;DHT22;49403;51.046;13.780;2023-07-31T02:14:13;20.30;65.80
63277;DHT22;49403;51.046;13.780;2023-07-31T02:14:44;20.00;65.50
63277;DHT22;49403;51.046;13.780;2023-07-31T02:15:16;20.30;65.90
63277;DHT22;49403;51.046;13.780;2023-07-31T02:15:48;20.30;65.80
63277;DHT22;49403;51.046;13.780;2023-07-31T02:16:19;20.30;65.40
63277;DHT22;49403;51.046;13.780;2023-07-31T02:16:50;20.30;65.40
63277;DHT22;49403;51.046;13.780;2023-07-31T02:17:21;20.30;65.40
63277;DHT22;49403;51.046;13.780;2023-07-31T02:17:52;20.30;65.40
63277;DHT22;49403;51.046;13.780;2023-07-31T02:18:24;20.30;65.20
63277;DHT22;49403;51.046;13.780;2023-07-31T02:18:55;20.30;65.10
63277;DHT22;49403;51.046;13.780;2023-07-31T02:19:26;20.30;64.90
63277;DHT22;49403;51.046;13.780;2023-07-31T02:19:58;20.30;64.70
63277;DHT22;49403;51.046;13.780;2023-07-31T02:20:29;20.30;64.60
63277;DHT22;49403;51.046;13.780;2023-07-31T02:21:03;20.30;64.80
63277;DHT22;49403;51.046;13.780;2023-07-31T02:21:34;20.30;64.90
63277;DHT22;49403;51.046;13.780;2023-07-31T02:22:06;20.30;64.90
63277;DHT22;49403;51.046;13.780;2023-07-31T02:22:37;20.40;64.90
63277;DHT22;49403;51.046;13.780;2023-07-31T02:23:08;20.30;64.70
63277;DHT22;49403;51.046;13.780;2023-07-31T02:23:39;20.30;64.80
63277;DHT22;49403;51.046;13.780;2023-07-31T02:24:11;19.40;64.00
63277;DHT22;49403;51.046;13.780;2023-07-31T02:24:42;20.30;64.60
63277;DHT22;49403;51.046;13.780;2023-07-31T02:25:13;20.40;64.80
63277;DHT22;49403;51.046;13.780;2023-07-31T02:25:45;20.40;64.90
63277;DHT22;49403;51.046;13.780;2023-07-31T02:26:19;20.40;64.90
63277;DHT22;49403;51.046;13.780;2023-07-31T02:26:51;20.40;64.60
63277;DHT22;49403;51.046;13.780;2023-07-31T02:27:22;20.40;64.50
63277;DHT22;49403;51.046;13.780;2023-07-31T02:27:57;20.40;64.60
63277;DHT22;49403;51.046;13.780;2023-07-31T02:28:29;20.40;64.70
63277;DHT22;49403;51.046;13.780;2023-07-31T02:29:00;20.60;64.80
63277;DHT22;49403;51.046;13.780;2023-07-31T02:29:31;20.40;64.60
63277;DHT22;49403;51.046;13.780;2023-07-31T02:30:03;20.40;64.70
63277;DHT22;49403;51.046;13.780;2023-07-31T02:30:34;20.40;64.70
63277;DHT22;49403;51.046;13.780;2023-07-31T02:31:05;21.50;65.70
63277;DHT22;49403;51.046;13.780;2023-07-31T02:31:36;20.40;64.50
63277;DHT22;49403;51.046;13.780;2023-07-31T02:32:08;20.40;64.50
63277;DHT22;49403;51.046;13.780;2023-07-31T02:32:39;20.40;64.40
63277;DHT22;49403;51.046;13.780;2023-07-31T02:33:10;20.40;64.40
63277;DHT22;49403;51.046;13.780;2023-07-31T02:33:41;20.40;64.50
63277;DHT22;49403;51.046;13.780;2023-07-31T02:34:13;20.40;64.50
63277;DHT22;49403;51.046;13.780;2023-07-31T02:34:44;20.50;64.50
63277;DHT22;49403;51.046;13.780;2023-07-31T02:35:15;20.40;64.20
63277;DHT22;49403;51.046;13.780;2023-07-31T02:35:47;21.40;65.30
63277;DHT22;49403;51.046;13.780;2023-07-31T02:36:18;20.40;64.40
63277;DHT22;49403;51.046;13.780;2023-07-31T02:36:49;20.40;64.50
63277;DHT22;49403;51.046;13.780;2023-07-31T02:37:21;20.40;64.50
63277;DHT22;49403;51.046;13.780;2023-07-31T02:37:52;20.40;64.40
63277;DHT22;49403;51.046;13.780;2023-07-31T02:38:23;20.40;64.30
63277;DHT22;49403;51.046;13.780;2023-07-31T02:38:55;20.40;64.10
63277;DHT22;49403;51.046;13.780;2023-07-31T02:39:26;20.40;64.00
63277;DHT22;49403;51.046;13.780;2023-07-31T02:39:57;20.50;64.20
63277;DHT22;49403;51.046;13.780;2023-07-31T02:40:28;20.40;64.10
63277;DHT22;49403;51.046;13.780;2023-07-31T02:41:00;20.40;64.00
63277;DHT22;49403;51.046;13.780;2023-07-31T02:41:31;20.40;64.00
63277;DHT22;49403;51.046;13.780;2023-07-31T02:42:03;20.40;63.60
63277;DHT22;49403;51.046;13.780;2023-07-31T02:42:34;20.50;63.80
63277;DHT22;49403;51.046;13.780;2023-07-31T02:43:05;20.40;63.60
63277;DHT22;49403;51.046;13.780;2023-07-31T02:43:36;20.40;63.70
63277;DHT22;49403;51.046;13.780;2023-07-31T02:44:08;20.30;63.70
63277;DHT22;49403;51.046;13.780;2023-07-31T02:44:39;20.90;64.50
63277;DHT22;49403;51.046;13.780;2023-07-31T02:45:10;20.40;64.00
63277;DHT22;49403;51.046;13.780;2023-07-31T02:45:41;20.40;64.00
63277;DHT22;49403;51.046;13.780;2023-07-31T02:46:13;20.30;63.80
63277;DHT22;49403;51.046;13.780;2023-07-31T02:46:44;20.40;63.70
63277;DHT22;49403;51.046;13.780;2023-07-31T02:47:15;20.50;63.80
63277;DHT22;49403;51.046;13.780;2023-07-31T02:47:47;20.40;63.90
63277;DHT22;49403;51.046;13.780;2023-07-31T02:48:18;20.50;64.10
63277;DHT22;49403;51.046;13.780;2023-07-31T02:48:49;20.40;64.00
63277;DHT22;49403;51.046;13.780;2023-07-31T02:49:20;20.40;64.00
63277;DHT22;49403;51.046;13.780;2023-07-31T02:49:52;20.40;63.90
63277;DHT22;49403;51.046;13.780;2023-07-31T02:50:23;20.40;63.40
63277;DHT22;49403;51.046;13.780;2023-07-31T02:50:54;20.40;63.30
63277;DHT22;49403;51.046;13.780;2023-07-31T02:51:26;20.40;63.30
63277;DHT22;49403;51.046;13.780;2023-07-31T02:51:57;20.40;63.30
63277;DHT22;49403;51.046;13.780;2023-07-31T02:52:28;20.50;63.80
63277;DHT22;49403;51.046;13.780;2023-07-31T02:52:59;20.30;63.90
63277;DHT22;49403;51.046;13.780;2023-07-31T02:53:31;20.30;63.80
63277;DHT22;49403;51.046;13.780;2023-07-31T02:54:02;20.30;63.90
63277;DHT22;49403;51.046;13.780;2023-07-31T02:54:33;20.30;63.90
63277;DHT22;49403;51.046;13.780;2023-07-31T02:55:05;19.90;63.50
63277;DHT22;49403;51.046;13.780;2023-07-31T02:55:36;20.40;64.10
63277;DHT22;49403;51.046;13.780;2023-07-31T02:56:08;20.30;64.00
63277;DHT22;49403;51.046;13.780;2023-07-31T02:56:39;20.30;64.10
63277;DHT22;49403;51.046;13.780;2023-07-31T02:57:10;20.30;64.10
63277;DHT22;49403;51.046;13.780;2023-07-31T02:57:41;20.90;64.70
63277;DHT22;49403;51.046;13.780;2023-07-31T02:58:13;20.30;63.90
63277;DHT22;49403;51.046;13.780;2023-07-31T02:58:44;20.30;63.90
63277;DHT22;49403;51.046;13.780;2023-07-31T02:59:16;20.30;63.90
63277;DHT22;49403;51.046;13.780;2023-07-31T02:59:47;20.40;64.00
63277;DHT22;49403;51.046;13.780;2023-07-31T03:00:19;20.30;64.50
63277;DHT22;49403;51.046;13.780;2023-07-31T03:00:50;21.20;64.50
63277;DHT22;49403;51.046;13.780;2023-07-31T03:01:21;20.70;63.80
63277;DHT22;49403;51.046;13.780;2023-07-31T03:01:53;20.40;63.60
63277;DHT22;49403;51.046;13.780;2023-07-31T03:02:24;20.40;63.60
63277;DHT22;49403;51.046;13.780;2023-07-31T03:02:56;20.40;63.40
63277;DHT22;49403;51.046;13.780;2023-07-31T03:03:27;20.40;63.30
63277;DHT22;49403;51.046;13.780;2023-07-31T03:03:58;20.30;63.40
63277;DHT22;49403;51.046;13.780;2023-07-31T03:04:29;20.30;62.80
63277;DHT22;49403;51.046;13.780;2023-07-31T03:05:01;20.30;63.00
63277;DHT22;49403;51.046;13.780;2023-07-31T03:05:32;20.30;63.20
63277;DHT22;49403;51.046;13.780;2023-07-31T03:06:03;20.30;63.30
63277;DHT22;49403;51.046;13.780;2023-07-31T03:06:34;20.30;63.30
63277;DHT22;49403;51.046;13.780;2023-07-31T03:07:05;20.30;63.20
63277;DHT22;49403;51.046;13.780;2023-07-31T03:07:37;20.30;63.30
63277;DHT22;49403;51.046;13.780;2023-07-31T03:08:08;20.30;63.40
63277;DHT22;49403;51.046;13.780;2023-07-31T03:08:39;20.30;63.40
63277;DHT22;49403;51.046;13.780;2023-07-31T03:09:10;20.30;63.20
63277;DHT22;49403;51.046;13.780;2023-07-31T03:09:42;20.20;63.30
63277;DHT22;49403;51.046;13.780;2023-07-31T03:10:13;20.30;63.40
63277;DHT22;49403;51.046;13.780;2023-07-31T03:10:44;20.30;63.40
63277;DHT22;49403;51.046;13.780;2023-07-31T03:11:15;20.30;63.40
63277;DHT22;49403;51.046;13.780;2023-07-31T03:11:46;20.30;63.00
63277;DHT22;49403;51.046;13.780;2023-07-31T03:12:17;20.30;63.00
63277;DHT22;49403;51.046;13.780;2023-07-31T03:12:50;20.30;63.10
63277;DHT22;49403;51.046;13.780;2023-07-31T03:13:21;20.30;62.80
63277;DHT22;49403;51.046;13.780;2023-07-31T03:13:52;20.30;62.80
63277;DHT22;49403;51.046;13.780;2023-07-31T03:14:24;20.30;62.70
63277;DHT22;49403;51.046;13.780;2023-07-31T03:14:57;20.30;62.70
63277;DHT22;49403;51.046;13.780;2023-07-31T03:15:28;20.30;63.00
63277;DHT22;49403;51.046;13.780;2023-07-31T03:15:59;20.30;63.20
63277;DHT22;49403;51.046;13.780;2023-07-31T03:16:30;20.30;63.10
63277;DHT22;49403;51.046;13.780;2023-07-31T03:17:02;20.30;63.10
63277;DHT22;49403;51.046;13.780;2023-07-31T03:17:33;20.60;63.30
63277;DHT22;49403;51.046;13.780;2023-07-31T03:18:04;20.40;62.70
63277;DHT22;49403;51.046;13.780;2023-07-31T03:18:35;20.40;62.80
63277;DHT22;49403;51.046;13.780;2023-07-31T03:19:06;20.40;62.70
63277;DHT22;49403;51.046;13.780;2023-07-31T03:19:38;20.40;62.60
63277;DHT22;49403;51.046;13.780;2023-07-31T03:20:09;20.40;62.60
63277;DHT22;49403;51.046;13.780;2023-07-31T03:20:44;20.40;62.30
63277;DHT22;49403;51.046;13.780;2023-07-31T03:21:15;21.80;63.70
63277;DHT22;49403;51.046;13.780;2023-07-31T03:21:46;21.40;63.40
63277;DHT22;49403;51.046;13.780;2023-07-31T03:22:18;20.50;62.50
63277;DHT22;49403;51.046;13.780;2023-07-31T03:22:49;20.50;63.20
63277;DHT22;49403;51.046;13.780;2023-07-31T03:23:20;20.40;62.30
63277;DHT22;49403;51.046;13.780;2023-07-31T03:23:51;20.40;62.30